Time;durP1;ratioP1;P1;durP2;ratioP2;P2;SDS_P1;SDS_P2;PMS_P1;PMS_P2;Temp;Humidity;BMP_temperature;BMP_pressure;BME280_temperature;BME280_humidity;BME280_pressure;Samples;Min_cycle;Max_cycle;Signal;HPM_P1;HPM_P2
2023/03/06 00:01:17;;;;;;;17.13;11.50;;;;;;;3.01;90.35;97411.09;5033267;28;20220;-78
2023/03/06 00:03:43;;;;;;;17.73;11.10;;;;;;;2.96;90.95;97407.88;5033219;28;20310;-77
2023/03/06 00:06:10;;;;;;;19.67;11.30;;;;;;;3.00;90.86;97403.34;5033035;28;20228;-78
2023/03/06 00:08:36;;;;;;;19.43;11.87;;;;;;;2.94;90.83;97407.09;5033111;28;20231;-78
2023/03/06 00:11:04;;;;;;;21.40;12.00;;;;;;;2.97;90.92;97403.50;5033204;28;20215;-77
2023/03/06 00:13:33;;;;;;;20.50;12.83;;;;;;;2.96;91.16;97401.81;5032926;28;20223;-78
2023/03/06 00:16:00;;;;;;;22.03;12.90;;;;;;;3.04;90.68;97403.13;5032873;28;20243;-78
2023/03/06 00:18:27;;;;;;;18.83;10.93;;;;;;;3.04;90.63;97397.03;5032449;28;20211;-77
2023/03/06 00:20:53;;;;;;;18.83;11.73;;;;;;;3.03;90.66;97400.56;5033401;28;20219;-78
2023/03/06 00:23:20;;;;;;;21.90;11.57;;;;;;;3.03;90.76;97393.59;5032902;28;20215;-78
2023/03/06 00:25:48;;;;;;;19.60;10.97;;;;;;;3.04;89.90;97395.28;5032763;28;20730;-77
2023/03/06 00:28:16;;;;;;;19.93;12.00;;;;;;;3.07;90.21;97387.28;5032367;28;20244;-78
2023/03/06 00:30:44;;;;;;;19.50;10.63;;;;;;;3.10;89.44;97374.09;5032676;28;20275;-77
2023/03/06 00:33:11;;;;;;;21.30;11.70;;;;;;;3.08;89.53;97375.94;5032506;28;20207;-78
2023/03/06 00:35:39;;;;;;;19.37;11.10;;;;;;;3.04;89.12;97374.41;5032747;28;20256;-78
2023/03/06 00:38:05;;;;;;;18.50;10.93;;;;;;;3.03;89.17;97367.50;5032571;28;20693;-77
2023/03/06 00:40:32;;;;;;;19.23;10.67;;;;;;;3.02;89.50;97371.03;5032610;28;20217;-78
2023/03/06 00:42:58;;;;;;;18.30;11.20;;;;;;;3.01;89.69;97368.50;5032670;28;20207;-78
2023/03/06 00:45:26;;;;;;;21.07;11.17;;;;;;;3.00;90.10;97366.81;5032214;28;20244;-77
2023/03/06 00:47:53;;;;;;;17.13;10.73;;;;;;;2.95;90.44;97361.81;5032066;28;20234;-78
2023/03/06 00:50:20;;;;;;;21.80;11.43;;;;;;;2.92;90.33;97361.97;5032315;28;20209;-78
2023/03/06 00:52:46;;;;;;;17.93;10.93;;;;;;;2.89;90.58;97367.34;5032140;28;20702;-77
2023/03/06 00:55:13;;;;;;;22.07;11.80;;;;;;;2.89;90.34;97367.34;5032284;28;20330;-77
2023/03/06 00:57:39;;;;;;;21.07;11.67;;;;;;;2.81;90.52;97366.91;5031920;28;20205;-77
2023/03/06 01:00:07;;;;;;;21.50;12.37;;;;;;;2.88;90.67;97368.25;5032119;28;20212;-78
2023/03/06 01:02:35;;;;;;;22.37;12.97;;;;;;;2.89;90.32;97354.28;5032212;28;20215;-77
2023/03/06 01:05:02;;;;;;;23.17;12.70;;;;;;;2.87;90.67;97350.94;5032326;28;20239;-77
2023/03/06 01:07:32;;;;;;;20.70;12.50;;;;;;;2.83;91.33;97343.34;5031937;28;20235;-77
2023/03/06 01:09:58;;;;;;;18.93;11.90;;;;;;;2.77;91.72;97354.94;5032159;28;20212;-78
2023/03/06 01:12:25;;;;;;;21.70;11.40;;;;;;;2.76;92.11;97350.63;5032020;28;20550;-78
2023/03/06 01:14:51;;;;;;;19.70;11.87;;;;;;;2.72;93.10;97351.72;5032168;28;20232;-78
2023/03/06 01:17:18;;;;;;;16.93;11.60;;;;;;;2.74;93.29;97344.66;5031708;28;20211;-78
2023/03/06 01:19:46;;;;;;;18.27;11.37;;;;;;;2.80;92.59;97339.13;5031979;28;20219;-78
2023/03/06 01:22:12;;;;;;;19.70;10.60;;;;;;;2.84;92.05;97342.41;5031805;28;20212;-78
2023/03/06 01:24:39;;;;;;;17.73;10.83;;;;;;;2.84;91.46;97335.44;5031580;28;20229;-78
2023/03/06 01:27:05;;;;;;;19.70;10.47;;;;;;;2.85;90.47;97323.22;5030492;28;20241;-78
2023/03/06 01:29:32;;;;;;;18.73;10.60;;;;;;;2.86;90.56;97325.75;5031844;28;20215;-78
2023/03/06 01:31:58;;;;;;;16.13;9.30;;;;;;;2.86;90.18;97320.53;5031781;28;20219;-78
2023/03/06 01:34:25;;;;;;;15.63;9.57;;;;;;;2.86;89.51;97317.94;5031524;28;20209;-78
2023/03/06 01:36:53;;;;;;;16.50;9.83;;;;;;;2.85;89.20;97324.09;5031444;28;20219;-78
2023/03/06 01:39:20;;;;;;;14.93;9.13;;;;;;;2.86;88.65;97317.94;5031279;28;20675;-78
2023/03/06 01:41:46;;;;;;;15.97;9.67;;;;;;;2.87;88.06;97313.56;5031427;28;20354;-78
2023/03/06 01:44:13;;;;;;;13.73;8.33;;;;;;;2.90;87.45;97311.66;5031338;28;20216;-78
2023/03/06 01:46:41;;;;;;;16.63;8.43;;;;;;;2.93;87.04;97303.63;5031111;28;20243;-78
2023/03/06 01:49:14;;;;;;;14.17;9.50;;;;;;;2.92;86.47;97301.97;5031429;28;20232;-78
2023/03/06 01:51:47;;;;;;;14.93;9.27;;;;;;;2.91;86.61;97292.44;5031705;28;20211;-78
2023/03/06 01:54:21;;;;;;;17.57;9.63;;;;;;;2.95;86.88;97286.13;5031434;28;20211;-78
2023/03/06 01:56:51;;;;;;;16.57;9.53;;;;;;;2.94;86.96;97291.44;5031354;28;20213;-78
2023/03/06 01:59:18;;;;;;;15.43;9.90;;;;;;;2.96;86.33;97293.06;5031377;28;20219;-78
2023/03/06 02:01:46;;;;;;;15.93;9.73;;;;;;;2.95;85.84;97280.91;5031371;28;20222;-78
2023/03/06 02:04:13;;;;;;;17.03;10.00;;;;;;;2.92;85.66;97275.88;5031519;28;20215;-78
2023/03/06 02:06:42;;;;;;;14.37;8.63;;;;;;;2.91;85.44;97268.09;5030878;28;20231;-78
2023/03/06 02:09:11;;;;;;;14.37;8.43;;;;;;;2.88;85.43;97263.06;5031328;28;20651;-78
2023/03/06 02:11:42;;;;;;;15.40;9.30;;;;;;;2.92;85.20;97262.81;5031291;28;20235;-78
2023/03/06 02:14:10;;;;;;;14.53;9.33;;;;;;;3.00;85.10;97259.81;5031382;28;20258;-78
2023/03/06 02:16:36;;;;;;;12.57;8.37;;;;;;;2.95;84.49;97265.25;5030962;28;20582;-78
2023/03/06 02:19:07;;;;;;;14.37;8.43;;;;;;;2.93;84.66;97246.22;5030926;28;20215;-78
2023/03/06 02:21:36;;;;;;;14.27;8.93;;;;;;;2.94;85.41;97245.31;5031471;28;20219;-78
2023/03/06 02:24:13;;;;;;;14.33;8.90;;;;;;;2.99;85.01;97243.28;5031123;28;20208;-78
2023/03/06 02:26:42;;;;;;;16.20;8.10;;;;;;;2.98;84.75;97244.22;5030914;28;20600;-78
2023/03/06 02:29:09;;;;;;;13.33;8.27;;;;;;;2.92;84.55;97241.09;5030755;28;20255;-78
2023/03/06 02:31:36;;;;;;;12.93;7.93;;;;;;;2.95;84.97;97233.94;5030710;28;20705;-78
2023/03/06 02:34:05;;;;;;;12.67;7.77;;;;;;;2.93;84.42;97230.56;5031008;28;20204;-78
2023/03/06 02:36:34;;;;;;;13.10;8.43;;;;;;;2.92;83.96;97226.28;5030727;28;20244;-78
2023/03/06 02:39:01;;;;;;;14.63;8.90;;;;;;;2.89;84.15;97229.03;5034790;28;20212;-78
2023/03/06 02:41:28;;;;;;;13.13;8.47;;;;;;;2.86;83.51;97224.00;5034844;28;20691;-78
2023/03/06 02:43:56;;;;;;;13.00;8.73;;;;;;;2.85;83.34;97214.50;5034697;28;20215;-78
2023/03/06 02:46:22;;;;;;;12.67;8.33;;;;;;;2.84;83.66;97215.41;5034466;28;20245;-78
2023/03/06 02:48:49;;;;;;;12.30;7.90;;;;;;;2.79;83.73;97212.22;5034892;28;20229;-78
2023/03/06 02:51:15;;;;;;;12.93;8.33;;;;;;;2.84;83.37;97220.63;5034703;28;20219;-78
2023/03/06 02:53:42;;;;;;;16.63;9.03;;;;;;;2.84;83.28;97214.56;5034532;28;20217;-78
2023/03/06 02:56:08;;;;;;;14.70;8.43;;;;;;;2.89;82.83;97210.78;5034322;28;20757;-78
2023/03/06 02:58:35;;;;;;;14.17;9.33;;;;;;;2.92;82.46;97207.16;5034363;28;20215;-78
2023/03/06 03:01:03;;;;;;;14.83;9.13;;;;;;;2.92;82.51;97207.16;5034517;28;20692;-78
2023/03/06 03:03:30;;;;;;;12.20;8.17;;;;;;;2.89;82.54;97210.78;5034531;28;20212;-78
2023/03/06 03:05:56;;;;;;;13.90;8.80;;;;;;;2.80;83.04;97213.88;5034418;28;20721;-78
2023/03/06 03:08:23;;;;;;;15.10;8.43;;;;;;;2.87;82.54;97206.59;5033894;28;20849;-78
2023/03/06 03:10:49;;;;;;;17.60;9.43;;;;;;;2.94;81.84;97208.75;5034683;28;20584;-78
2023/03/06 03:13:16;;;;;;;13.80;8.70;;;;;;;2.93;81.23;97195.81;5034128;28;20213;-78
2023/03/06 03:15:43;;;;;;;14.57;8.10;;;;;;;2.96;81.13;97199.09;5034391;28;20230;-78
2023/03/06 03:18:12;;;;;;;13.83;8.17;;;;;;;2.93;81.25;97201.88;5034148;28;20205;-78
2023/03/06 03:20:41;;;;;;;12.33;8.00;;;;;;;2.92;81.28;97197.56;5034174;28;20216;-78
2023/03/06 03:23:08;;;;;;;14.63;8.73;;;;;;;2.97;81.33;97203.41;5034046;28;20218;-78
2023/03/06 03:25:34;;;;;;;13.07;8.10;;;;;;;2.97;81.44;97199.94;5033784;28;20338;-78
2023/03/06 03:28:01;;;;;;;14.37;8.33;;;;;;;2.99;81.55;97193.72;5033665;28;20721;-78
2023/03/06 03:30:27;;;;;;;14.83;8.43;;;;;;;2.96;81.22;97187.81;5034143;28;20211;-78
2023/03/06 03:32:54;;;;;;;12.47;8.10;;;;;;;2.89;81.44;97187.28;5034140;28;20290;-78
2023/03/06 03:35:22;;;;;;;14.00;8.47;;;;;;;2.88;81.57;97180.38;5033805;28;20706;-78
2023/03/06 03:37:48;;;;;;;11.97;8.03;;;;;;;2.86;81.56;97184.84;5033685;28;20235;-78
2023/03/06 03:40:15;;;;;;;12.97;7.87;;;;;;;2.89;81.34;97186.47;5033789;28;20315;-78
2023/03/06 03:42:41;;;;;;;11.63;7.40;;;;;;;2.87;81.31;97183.94;5034041;28;20209;-78
2023/03/06 03:45:08;;;;;;;13.33;7.83;;;;;;;2.89;80.64;97176.84;5033831;28;20617;-78
2023/03/06 03:47:35;;;;;;;11.47;7.60;;;;;;;2.89;80.36;97176.84;5033540;28;20219;-78
2023/03/06 03:50:01;;;;;;;12.00;7.07;;;;;;;2.88;80.25;97172.56;5032917;28;20205;-78
2023/03/06 03:52:29;;;;;;;10.73;7.07;;;;;;;2.89;79.90;97174.25;5033780;28;20214;-78
2023/03/06 03:54:56;;;;;;;11.70;7.27;;;;;;;2.93;80.04;97172.34;5033520;28;20744;-78
2023/03/06 03:57:22;;;;;;;11.73;7.43;;;;;;;2.91;79.62;97169.81;5033499;28;20295;-78
2023/03/06 03:59:49;;;;;;;12.63;7.57;;;;;;;2.87;79.92;97168.28;5033676;28;20209;-78
2023/03/06 04:02:15;;;;;;;12.83;6.97;;;;;;;2.84;80.11;97168.44;5033691;28;20208;-78
2023/03/06 04:04:42;;;;;;;15.03;8.30;;;;;;;2.85;80.33;97164.91;5033319;28;20233;-78
2023/03/06 04:07:09;;;;;;;13.37;7.77;;;;;;;2.86;80.66;97165.75;5033329;28;20219;-78
2023/03/06 04:09:37;;;;;;;10.87;7.33;;;;;;;2.84;81.41;97162.38;5033144;28;20239;-79
2023/03/06 04:12:03;;;;;;;12.33;7.60;;;;;;;2.75;82.03;97158.50;5033343;28;20203;-78
2023/03/06 04:14:30;;;;;;;13.37;7.90;;;;;;;2.74;81.89;97159.44;5033123;28;20215;-78
2023/03/06 04:16:56;;;;;;;12.20;7.50;;;;;;;2.70;81.74;97154.47;5032870;28;20212;-78
2023/03/06 04:19:23;;;;;;;13.43;8.27;;;;;;;2.70;82.17;97157.06;5032935;28;20228;-78
2023/03/06 04:21:50;;;;;;;14.33;8.33;;;;;;;2.69;82.30;97158.81;5032983;28;20220;-78
2023/03/06 04:24:16;;;;;;;11.70;8.13;;;;;;;2.73;81.82;97155.13;5033071;28;20216;-78
2023/03/06 04:26:44;;;;;;;11.37;7.83;;;;;;;2.73;81.64;97154.28;5032973;28;20212;-78
2023/03/06 04:29:11;;;;;;;13.23;8.17;;;;;;;2.69;81.97;97156.22;5032694;28;20710;-78
2023/03/06 04:31:37;;;;;;;13.17;7.93;;;;;;;2.69;82.07;97148.41;5032951;28;20212;-78
2023/03/06 04:34:03;;;;;;;13.23;8.53;;;;;;;2.67;81.78;97150.25;5033241;28;20221;-78
2023/03/06 04:36:32;;;;;;;13.70;8.80;;;;;;;2.72;82.47;97153.47;5032410;28;20239;-78
2023/03/06 04:38:59;;;;;;;13.77;8.17;;;;;;;2.67;82.34;97145.03;5033227;28;20216;-78
2023/03/06 04:41:26;;;;;;;12.33;8.17;;;;;;;2.71;82.34;97146.56;5032911;28;20204;-78
2023/03/06 04:43:53;;;;;;;11.57;8.00;;;;;;;2.73;82.54;97139.50;5032900;28;20209;-78
2023/03/06 04:46:20;;;;;;;13.00;8.30;;;;;;;2.70;82.32;97144.84;5032316;28;20593;-78
2023/03/06 04:48:46;;;;;;;13.07;8.00;;;;;;;2.70;81.80;97136.22;5032697;28;20233;-78
2023/03/06 04:51:14;;;;;;;11.77;8.17;;;;;;;2.66;82.05;97142.50;5032516;28;20700;-78
2023/03/06 04:53:40;;;;;;;13.80;8.00;;;;;;;2.61;82.41;97140.16;5032528;28;20219;-78
2023/03/06 04:56:07;;;;;;;12.10;8.10;;;;;;;2.59;82.62;97146.38;5032351;28;20231;-79
2023/03/06 04:58:34;;;;;;;11.63;7.73;;;;;;;2.62;82.96;97144.44;5032507;28;20215;-79
2023/03/06 05:01:02;;;;;;;12.00;7.10;;;;;;;2.59;82.62;97136.78;5031373;28;20215;-79
2023/03/06 05:03:28;;;;;;;11.27;7.20;;;;;;;2.56;82.66;97136.94;5032413;28;20212;-79
2023/03/06 05:05:55;;;;;;;10.47;7.17;;;;;;;2.55;82.71;97130.03;5032361;28;20236;-79
2023/03/06 05:08:22;;;;;;;12.53;7.80;;;;;;;2.57;82.39;97127.34;5031974;28;20231;-78
2023/03/06 05:10:54;;;;;;;11.50;7.40;;;;;;;2.56;82.35;97133.50;5032184;28;20236;-78
2023/03/06 05:13:20;;;;;;;13.77;8.13;;;;;;;2.58;82.01;97131.66;5031877;28;20223;-78
2023/03/06 05:15:47;;;;;;;13.97;7.10;;;;;;;2.55;81.92;97124.81;5031756;28;20671;-78
2023/03/06 05:18:15;;;;;;;12.23;7.57;;;;;;;2.55;81.75;97130.03;5031596;28;20212;-78
2023/03/06 05:20:42;;;;;;;10.53;6.67;;;;;;;2.58;81.46;97124.66;5032125;28;20208;-78
2023/03/06 05:23:08;;;;;;;11.60;7.03;;;;;;;2.56;80.97;97121.28;5031870;28;20212;-78
2023/03/06 05:25:35;;;;;;;12.87;7.70;;;;;;;2.59;81.04;97118.53;5031761;28;20628;-78
2023/03/06 05:28:01;;;;;;;13.40;7.37;;;;;;;2.59;80.91;97126.34;5031260;28;20226;-78
2023/03/06 05:30:28;;;;;;;10.77;7.23;;;;;;;2.59;80.68;97125.50;5031613;28;20219;-78
2023/03/06 05:32:54;;;;;;;13.43;7.70;;;;;;;2.64;80.50;97120.88;5031540;28;20211;-78
2023/03/06 05:35:23;;;;;;;14.00;8.03;;;;;;;2.61;80.36;97121.03;5031653;28;20269;-78
2023/03/06 05:37:49;;;;;;;12.23;7.03;;;;;;;2.62;80.68;97114.88;5031449;28;20207;-78
2023/03/06 05:40:17;;;;;;;12.17;7.37;;;;;;;2.63;80.08;97112.22;5031449;28;20213;-78
2023/03/06 05:42:43;;;;;;;13.30;7.70;;;;;;;2.68;79.77;97119.78;5031552;28;20546;-78
2023/03/06 05:45:11;;;;;;;11.07;7.60;;;;;;;2.66;79.99;97114.66;5031211;28;20247;-78
2023/03/06 05:47:37;;;;;;;11.60;7.37;;;;;;;2.68;79.84;97109.34;5031275;28;20224;-75
2023/03/06 05:50:06;;;;;;;13.20;7.83;;;;;;;2.65;80.06;97115.59;5031256;28;20235;-78
2023/03/06 05:52:34;;;;;;;11.87;7.47;;;;;;;2.68;80.26;97111.94;5031357;28;20630;-78
2023/03/06 05:55:01;;;;;;;13.40;8.03;;;;;;;2.68;80.17;97117.16;5031093;28;20236;-78
2023/03/06 05:57:27;;;;;;;12.53;7.57;;;;;;;2.72;79.65;97110.88;5031150;28;20208;-78
2023/03/06 05:59:54;;;;;;;13.67;7.77;;;;;;;2.71;79.50;97112.66;5031223;28;20588;-78
2023/03/06 06:02:21;;;;;;;12.40;8.00;;;;;;;2.65;79.70;97105.16;5031190;28;20224;-78
2023/03/06 06:04:48;;;;;;;12.80;7.90;;;;;;;2.64;80.45;97110.44;5031529;28;20236;-78
2023/03/06 06:07:16;;;;;;;12.40;7.60;;;;;;;2.67;80.01;97108.50;5030926;28;20583;-79
2023/03/06 06:09:45;;;;;;;11.43;7.63;;;;;;;2.68;79.85;97114.56;5031110;28;20231;-78
2023/03/06 06:12:12;;;;;;;14.27;7.83;;;;;;;2.69;79.97;97111.06;5030761;28;20207;-78
2023/03/06 06:14:39;;;;;;;11.53;7.23;;;;;;;2.69;79.90;97117.09;5031324;28;20315;-78
2023/03/06 06:17:05;;;;;;;12.37;8.07;;;;;;;2.73;79.78;97108.19;5030793;28;20681;-78
2023/03/06 06:19:32;;;;;;;11.90;7.43;;;;;;;2.75;79.69;97121.16;5031289;28;20591;-78
2023/03/06 06:22:01;;;;;;;12.13;7.30;;;;;;;2.78;79.58;97115.75;5031322;28;20219;-78
2023/03/06 06:24:28;;;;;;;11.37;7.30;;;;;;;2.81;79.06;97116.41;5031009;28;20212;-78
2023/03/06 06:26:58;;;;;;;12.13;7.40;;;;;;;2.77;78.40;97117.53;5030619;28;20211;-78
2023/03/06 06:29:26;;;;;;;12.07;7.60;;;;;;;2.82;78.33;97112.06;5030981;28;20258;-78
2023/03/06 06:31:53;;;;;;;12.50;7.73;;;;;;;2.79;78.24;97112.22;5031122;28;20211;-78
2023/03/06 06:34:20;;;;;;;11.90;7.70;;;;;;;2.74;79.01;97112.47;5030869;28;20217;-78
2023/03/06 06:36:47;;;;;;;13.77;7.97;;;;;;;2.74;79.25;97115.09;5030578;28;20208;-78
2023/03/06 06:39:16;;;;;;;13.60;8.23;;;;;;;2.79;79.28;97117.44;5030818;28;20229;-78
2023/03/06 06:41:43;;;;;;;13.43;8.37;;;;;;;2.81;79.90;97120.81;5031062;28;20219;-78
2023/03/06 06:44:14;;;;;;;11.50;7.17;;;;;;;2.79;80.03;97123.50;5031001;28;20211;-78
2023/03/06 06:46:42;;;;;;;13.57;8.30;;;;;;;2.86;79.81;97127.47;5030299;28;20251;-78
2023/03/06 06:49:09;;;;;;;14.33;7.90;;;;;;;2.85;78.89;97117.94;5030759;28;20229;-78
2023/03/06 06:51:36;;;;;;;15.03;7.37;;;;;;;2.91;78.74;97116.75;5030730;28;20219;-78
2023/03/06 06:54:03;;;;;;;13.70;8.33;;;;;;;2.94;78.45;97120.03;5030542;28;20686;-78
2023/03/06 06:56:29;;;;;;;14.57;8.27;;;;;;;3.00;77.36;97109.25;5030552;28;20584;-78
2023/03/06 06:58:58;;;;;;;11.17;7.53;;;;;;;3.06;77.61;97111.53;5030884;28;20223;-78
2023/03/06 07:01:26;;;;;;;11.10;7.43;;;;;;;3.05;77.65;97111.63;5030806;28;20212;-78
2023/03/06 07:03:52;;;;;;;12.63;7.60;;;;;;;3.15;77.56;97120.63;5030569;28;20212;-78
2023/03/06 07:06:19;;;;;;;13.40;7.40;;;;;;;3.13;76.80;97107.66;5030171;28;20232;-78
2023/03/06 07:08:45;;;;;;;10.43;7.17;;;;;;;3.14;76.94;97114.59;5030379;28;20311;-78
2023/03/06 07:11:16;;;;;;;12.63;7.47;;;;;;;3.20;76.70;97109.00;5030666;28;20215;-78
2023/03/06 07:13:43;;;;;;;14.13;7.20;;;;;;;3.19;76.75;97112.53;5030630;28;20686;-80
2023/03/06 07:16:09;;;;;;;11.87;6.97;;;;;;;3.24;76.67;97115.72;5030274;28;20319;-81
2023/03/06 07:18:37;;;;;;;13.43;7.40;;;;;;;3.24;76.82;97126.16;5030407;28;20216;-84
2023/03/06 07:21:04;;;;;;;11.37;6.67;;;;;;;3.28;76.19;97114.63;5030478;28;20216;-82
2023/03/06 07:23:31;;;;;;;11.93;7.00;;;;;;;3.28;75.35;97106.81;5030554;28;20288;-79
2023/03/06 07:25:58;;;;;;;10.17;6.53;;;;;;;3.26;75.81;97118.25;5034029;28;20568;-80
2023/03/06 07:28:24;;;;;;;10.70;6.47;;;;;;;3.28;75.02;97112.03;5033813;28;20210;-80
2023/03/06 07:30:51;;;;;;;13.83;7.27;;;;;;;3.37;74.93;97108.06;5034166;28;20259;-79
2023/03/06 07:33:17;;;;;;;9.93;6.67;;;;;;;3.44;74.90;97112.84;5034031;28;20216;-79
2023/03/06 07:35:45;;;;;;;13.80;7.13;;;;;;;3.52;75.21;97123.69;5033941;28;20252;-78
2023/03/06 07:38:13;;;;;;;13.30;7.47;;;;;;;3.57;74.55;97115.59;5033603;28;20209;-77
2023/03/06 07:40:39;;;;;;;12.03;6.53;;;;;;;3.65;74.62;97121.19;5033187;28;20205;-79
2023/03/06 07:43:07;;;;;;;10.37;6.63;;;;;;;3.66;74.31;97118.50;5030999;28;20212;-79
2023/03/06 07:45:33;;;;;;;12.83;6.67;;;;;;;3.66;74.32;97123.72;5033084;28;20238;-79
2023/03/06 07:48:00;;;;;;;10.77;6.10;;;;;;;3.64;73.98;97122.97;5033689;28;20225;-79
2023/03/06 07:50:27;;;;;;;11.63;6.73;;;;;;;3.76;73.66;97129.25;5031245;28;20229;-79
2023/03/06 07:52:54;;;;;;;10.00;6.47;;;;;;;3.63;72.41;97117.84;5031464;28;20213;-79
2023/03/06 07:55:21;;;;;;;10.63;6.53;;;;;;;3.70;72.44;97117.41;5033596;28;20277;-78
2023/03/06 07:57:49;;;;;;;12.33;7.13;;;;;;;3.70;72.15;97125.25;5032420;28;20219;-78
2023/03/06 08:00:17;;;;;;;9.83;6.10;;;;;;;3.77;72.40;97125.72;5030625;28;20212;-78
2023/03/06 08:02:44;;;;;;;9.90;6.50;;;;;;;3.89;72.69;97123.22;5032645;28;20213;-78
2023/03/06 08:05:13;;;;;;;9.87;6.57;;;;;;;3.94;73.12;97129.03;5033276;28;20740;-79
2023/03/06 08:07:40;;;;;;;11.60;6.53;;;;;;;4.04;72.63;97129.34;5030933;28;20677;-79
2023/03/06 08:10:08;;;;;;;11.17;6.73;;;;;;;4.24;72.06;97127.22;5031212;28;20506;-78
2023/03/06 08:12:35;;;;;;;11.30;6.43;;;;;;;4.23;71.32;97119.47;5033347;28;20213;-78
2023/03/06 08:15:02;;;;;;;10.60;6.33;;;;;;;4.34;70.88;97117.88;5032624;28;20239;-78
2023/03/06 08:17:28;;;;;;;10.27;6.80;;;;;;;4.45;71.38;97122.47;5030432;28;20607;-78
2023/03/06 08:19:55;;;;;;;10.17;6.93;;;;;;;4.51;71.06;97122.91;5032187;28;20302;-78
2023/03/06 08:22:22;;;;;;;11.73;7.20;;;;;;;4.59;70.68;97123.28;5033175;28;20212;-78
2023/03/06 08:24:48;;;;;;;11.17;7.10;;;;;;;4.64;71.50;97125.63;5031208;28;20233;-78
2023/03/06 08:27:16;;;;;;;12.27;6.57;;;;;;;4.74;70.67;97121.50;5030370;28;20574;-78
2023/03/06 08:29:43;;;;;;;13.13;7.93;;;;;;;4.74;70.68;97116.25;5031010;28;20461;-77
2023/03/06 08:32:11;;;;;;;11.80;8.10;;;;;;;4.81;71.00;97118.41;5030941;28;20606;-77
2023/03/06 08:34:38;;;;;;;10.53;6.77;;;;;;;4.86;70.75;97118.13;5028961;28;20226;-77
2023/03/06 08:37:05;;;;;;;10.90;6.80;;;;;;;4.98;70.71;97123.44;5030419;28;20259;-77
2023/03/06 08:39:31;;;;;;;10.00;6.50;;;;;;;5.05;70.95;97122.09;5033927;28;20211;-76
2023/03/06 08:41:58;;;;;;;11.70;6.80;;;;;;;5.05;70.64;97123.88;5035049;28;20224;-77
2023/03/06 08:44:26;;;;;;;11.43;7.40;;;;;;;5.12;70.11;97128.63;5028761;28;20476;-77
2023/03/06 08:46:52;;;;;;;10.57;6.93;;;;;;;5.24;70.29;97125.22;5031458;28;20216;-77
2023/03/06 08:49:19;;;;;;;12.17;6.77;;;;;;;5.16;69.72;97130.13;5031611;28;20209;-77
2023/03/06 08:51:45;;;;;;;12.63;7.20;;;;;;;5.21;70.22;97128.06;5029185;28;20444;-77
2023/03/06 08:54:12;;;;;;;11.47;7.23;;;;;;;5.24;70.27;97143.56;5029595;28;20217;-76
2023/03/06 08:56:39;;;;;;;13.33;7.40;;;;;;;5.21;70.57;97133.31;5031371;28;20233;-77
2023/03/06 08:59:07;;;;;;;11.50;7.23;;;;;;;5.32;71.01;97138.66;5030756;28;20243;-77
2023/03/06 09:01:37;;;;;;;11.00;7.07;;;;;;;5.37;70.55;97133.97;5028224;28;20307;-77
2023/03/06 09:04:06;;;;;;;11.10;7.00;;;;;;;5.48;69.58;97130.66;5030758;28;20581;-77
2023/03/06 09:06:35;;;;;;;9.53;6.40;;;;;;;5.47;70.79;97136.84;5030773;28;20320;-76
2023/03/06 09:09:02;;;;;;;10.13;6.73;;;;;;;5.37;70.02;97127.91;5031501;28;20237;-78
2023/03/06 09:11:29;;;;;;;9.27;6.53;;;;;;;5.43;68.92;97130.97;5030820;28;20233;-78
2023/03/06 09:13:56;;;;;;;11.47;7.17;;;;;;;5.48;69.38;97136.75;5031550;28;20220;-77
2023/03/06 09:16:23;;;;;;;9.97;6.10;;;;;;;5.54;69.08;97131.13;5031859;28;20317;-77
2023/03/06 09:18:52;;;;;;;12.50;6.43;;;;;;;5.47;69.88;97132.47;5031363;28;20681;-77
2023/03/06 09:21:20;;;;;;;11.13;6.90;;;;;;;5.50;69.84;97142.72;5031926;28;20295;-83
2023/03/06 09:23:46;;;;;;;15.20;7.03;;;;;;;5.39;70.05;97132.13;5031914;28;20290;-81
2023/03/06 09:26:13;;;;;;;12.23;7.03;;;;;;;5.33;70.66;97140.38;5031984;28;20676;-76
2023/03/06 09:28:41;;;;;;;10.23;6.87;;;;;;;5.40;71.00;97152.13;5032165;28;20237;-75
2023/03/06 09:31:09;;;;;;;13.43;7.50;;;;;;;5.38;70.62;97151.38;5031663;28;20239;-79
2023/03/06 09:33:36;;;;;;;10.67;7.47;;;;;;;5.35;70.46;97148.13;5031797;28;20213;-80
2023/03/06 09:36:05;;;;;;;11.10;7.10;;;;;;;5.38;70.62;97150.56;5031504;28;20744;-80
2023/03/06 09:38:32;;;;;;;11.33;7.23;;;;;;;5.38;70.93;97154.00;5031475;28;20205;-80
2023/03/06 09:41:05;;;;;;;10.67;6.77;;;;;;;5.26;71.24;97151.34;5031400;28;20698;-80
2023/03/06 09:43:35;;;;;;;12.73;7.23;;;;;;;5.26;71.27;97151.34;5031832;28;20218;-80
2023/03/06 09:46:07;;;;;;;8.13;6.13;;;;;;;5.22;72.09;97155.06;5031365;28;20585;-80
2023/03/06 09:48:45;;;;;;;9.50;6.20;;;;;;;5.21;72.30;97158.63;5031161;28;20208;-76
2023/03/06 09:51:16;;;;;;;11.03;6.40;;;;;;;5.11;72.59;97163.63;5031069;28;20239;-80
2023/03/06 09:53:55;;;;;;;10.43;7.43;;;;;;;5.04;72.64;97166.72;5031416;28;20231;-81
2023/03/06 09:56:28;;;;;;;10.37;6.53;;;;;;;5.07;74.01;97177.00;5031039;28;20228;-80
2023/03/06 09:59:02;;;;;;;12.80;7.73;;;;;;;5.12;73.99;97181.00;5031372;28;20589;-80
2023/03/06 10:01:33;;;;;;;12.37;6.93;;;;;;;5.27;73.41;97166.09;5031315;28;20213;-80
2023/03/06 10:04:10;;;;;;;10.13;6.80;;;;;;;5.28;73.17;97166.03;5030744;28;20569;-80
2023/03/06 10:06:46;;;;;;;10.33;7.43;;;;;;;5.30;73.18;97158.91;5030417;28;20224;-80
2023/03/06 10:09:16;;;;;;;11.73;7.63;;;;;;;5.35;73.19;97163.84;5029446;28;20287;-80
2023/03/06 10:11:48;;;;;;;12.03;7.47;;;;;;;5.41;72.98;97163.44;5028464;28;20639;-80
2023/03/06 10:14:21;;;;;;;10.40;6.83;;;;;;;5.44;72.57;97165.88;5030994;28;20221;-80
2023/03/06 10:16:48;;;;;;;9.70;6.80;;;;;;;5.53;72.39;97160.88;5030963;28;20306;-77
2023/03/06 10:19:17;;;;;;;9.77;6.57;;;;;;;5.54;70.51;97154.69;5031023;28;20209;-80
2023/03/06 10:21:53;;;;;;;8.67;6.57;;;;;;;5.41;71.17;97155.59;5030947;28;20212;-79
2023/03/06 10:24:31;;;;;;;11.20;7.00;;;;;;;5.46;71.35;97159.59;5030933;28;20219;-77
2023/03/06 10:27:03;;;;;;;11.53;6.97;;;;;;;5.54;70.92;97157.31;5030915;28;20209;-79
2023/03/06 10:29:51;;;;;;;11.13;6.90;;;;;;;5.47;70.28;97145.56;5031110;28;20220;-79
2023/03/06 10:32:26;;;;;;;10.60;6.87;;;;;;;5.43;69.87;97148.47;5031495;28;20227;-81
2023/03/06 10:34:56;;;;;;;9.27;6.50;;;;;;;5.52;69.61;97158.34;5031055;28;20228;-76
2023/03/06 10:37:24;;;;;;;11.85;7.97;;;;;;;5.51;69.17;97140.97;5027734;28;20916;-79
2023/03/06 10:39:55;;;;;;;10.27;7.30;;;;;;;5.52;69.10;97147.88;5029348;28;20681;-76
2023/03/06 10:42:23;;;;;;;9.90;7.30;;;;;;;5.51;68.31;97135.72;5030216;28;20220;-77
2023/03/06 10:45:06;;;;;;;12.13;7.67;;;;;;;5.42;67.90;97137.16;5029904;28;20247;-78
2023/03/06 10:47:35;;;;;;;10.93;7.20;;;;;;;5.48;69.55;97146.38;5036049;28;20212;-77
2023/03/06 10:50:05;;;;;;;9.40;6.50;;;;;;;5.52;68.64;97140.88;5049296;28;20334;-81
2023/03/06 10:52:34;;;;;;;14.63;7.00;;;;;;;5.64;68.23;97142.69;5051175;28;20211;-87
2023/03/06 10:55:25;;;;;;;11.30;8.75;;;;;;;5.83;68.26;97140.56;5059533;28;20428;-86
2023/03/06 10:57:54;;;;;;;11.93;7.70;;;;;;;5.94;67.91;97132.84;5071820;28;20183;-89
2023/03/06 11:00:29;;;;;;;8.97;6.40;;;;;;;6.00;67.26;97137.69;5080231;28;20189;-86
2023/03/06 11:03:21;;;;;;;9.13;6.30;;;;;;;6.11;65.55;97122.03;5071745;28;20204;-83
2023/03/06 11:06:02;;;;;;;9.83;6.33;;;;;;;6.18;64.25;97110.19;5035359;28;20238;-82
2023/03/06 11:08:31;;;;;;;9.27;6.70;;;;;;;6.22;63.83;97109.03;5054415;28;20191;-83
2023/03/06 11:11:00;;;;;;;8.67;5.90;;;;;;;6.31;64.33;97113.69;5053960;28;20238;-82
2023/03/06 11:13:29;;;;;;;8.87;5.97;;;;;;;6.44;63.15;97104.00;5054286;28;20209;-84
2023/03/06 11:15:59;;;;;;;10.67;6.67;;;;;;;6.41;62.06;97093.72;5054287;28;20290;-84
2023/03/06 11:18:29;;;;;;;10.57;6.17;;;;;;;6.36;61.51;97085.31;5053915;28;20213;-84
2023/03/06 11:20:56;;;;;;;9.67;5.77;;;;;;;6.47;61.20;97092.47;5054379;28;20211;-87
2023/03/06 11:23:35;;;;;;;10.17;6.30;;;;;;;6.47;61.79;97084.59;5054185;28;20211;-87
2023/03/06 11:26:11;;;;;;;9.27;6.00;;;;;;;6.61;60.54;97080.06;5054019;28;20228;-86
2023/03/06 11:28:42;;;;;;;8.80;6.40;;;;;;;6.56;59.85;97071.66;5053899;28;20214;-85
2023/03/06 11:31:12;;;;;;;10.97;6.07;;;;;;;6.55;60.37;97084.88;5053842;28;20339;-87
2023/03/06 11:33:46;;;;;;;8.83;6.23;;;;;;;6.50;60.99;97082.59;5053793;28;20204;-86
2023/03/06 11:36:16;;;;;;;9.00;5.87;;;;;;;6.44;60.15;97072.53;5054113;28;20247;-89
2023/03/06 11:38:49;;;;;;;9.83;6.50;;;;;;;6.47;60.54;97074.91;5054043;28;20223;-87